sensor_id;sensor_type;location;lat;lon;timestamp;temperature;humidity
7216;DHT22;3649;48.798;9.798;2023-02-10T00:03:44;2.70;99.90
7216;DHT22;3649;48.798;9.798;2023-02-10T00:06:12;3.00;99.90
7216;DHT22;3649;48.798;9.798;2023-02-10T00:08:39;2.60;99.90
7216;DHT22;3649;48.798;9.798;2023-02-10T00:11:10;2.60;99.90
7216;DHT22;3649;48.798;9.798;2023-02-10T00:13:38;2.70;99.90
7216;DHT22;3649;48.798;9.798;2023-02-10T00:16:07;2.60;99.90
7216;DHT22;3649;48.798;9.798;2023-02-10T00:18:34;2.60;99.90
7216;DHT22;3649;48.798;9.798;2023-02-10T00:21:19;2.50;99.90
7216;DHT22;3649;48.798;9.798;2023-02-10T00:23:46;2.50;99.90
7216;DHT22;3649;48.798;9.798;2023-02-10T00:26:13;2.50;99.90
7216;DHT22;3649;48.798;9.798;2023-02-10T00:28:41;2.60;99.90
7216;DHT22;3649;48.798;9.798;2023-02-10T00:31:09;2.60;99.90
7216;DHT22;3649;48.798;9.798;2023-02-10T00:33:36;2.50;99.90
7216;DHT22;3649;48.798;9.798;2023-02-10T00:36:08;2.50;99.90
7216;DHT22;3649;48.798;9.798;2023-02-10T00:38:35;2.50;99.90
7216;DHT22;3649;48.798;9.798;2023-02-10T00:41:06;2.40;99.90
7216;DHT22;3649;48.798;9.798;2023-02-10T00:43:33;2.40;99.90
7216;DHT22;3649;48.798;9.798;2023-02-10T00:46:01;2.40;99.90
7216;DHT22;3649;48.798;9.798;2023-02-10T00:48:27;2.40;99.90
7216;DHT22;3649;48.798;9.798;2023-02-10T00:50:54;2.40;99.90
7216;DHT22;3649;48.798;9.798;2023-02-10T00:53:21;2.40;99.90
7216;DHT22;3649;48.798;9.798;2023-02-10T00:55:48;2.30;99.90
7216;DHT22;3649;48.798;9.798;2023-02-10T00:58:15;2.40;99.90
7216;DHT22;3649;48.798;9.798;2023-02-10T01:00:42;2.30;99.90
7216;DHT22;3649;48.798;9.798;2023-02-10T01:03:09;2.30;99.90
7216;DHT22;3649;48.798;9.798;2023-02-10T01:05:35;2.30;99.90
7216;DHT22;3649;48.798;9.798;2023-02-10T01:08:03;2.30;99.90
7216;DHT22;3649;48.798;9.798;2023-02-10T01:10:32;2.20;99.90
7216;DHT22;3649;48.798;9.798;2023-02-10T01:13:02;2.20;99.90
7216;DHT22;3649;48.798;9.798;2023-02-10T01:15:29;2.20;99.90
7216;DHT22;3649;48.798;9.798;2023-02-10T01:17:56;2.30;99.90
7216;DHT22;3649;48.798;9.798;2023-02-10T01:20:23;2.20;99.90
7216;DHT22;3649;48.798;9.798;2023-02-10T01:22:50;2.20;99.90
7216;DHT22;3649;48.798;9.798;2023-02-10T01:25:18;2.20;99.90
7216;DHT22;3649;48.798;9.798;2023-02-10T01:27:44;2.10;99.90
7216;DHT22;3649;48.798;9.798;2023-02-10T01:30:11;2.20;99.90
7216;DHT22;3649;48.798;9.798;2023-02-10T01:32:38;2.10;99.90
7216;DHT22;3649;48.798;9.798;2023-02-10T01:35:05;2.10;99.90
7216;DHT22;3649;48.798;9.798;2023-02-10T01:37:33;2.00;99.90
7216;DHT22;3649;48.798;9.798;2023-02-10T01:40:00;2.10;99.90
7216;DHT22;3649;48.798;9.798;2023-02-10T01:42:27;2.10;99.90
7216;DHT22;3649;48.798;9.798;2023-02-10T01:47:20;2.10;99.90
7216;DHT22;3649;48.798;9.798;2023-02-10T01:49:49;2.10;99.90
7216;DHT22;3649;48.798;9.798;2023-02-10T01:52:23;2.10;99.90
7216;DHT22;3649;48.798;9.798;2023-02-10T01:55:05;2.00;99.90
7216;DHT22;3649;48.798;9.798;2023-02-10T01:57:33;2.00;99.90
7216;DHT22;3649;48.798;9.798;2023-02-10T02:00:04;2.00;99.90
7216;DHT22;3649;48.798;9.798;2023-02-10T02:02:31;1.90;99.90
7216;DHT22;3649;48.798;9.798;2023-02-10T02:05:04;1.90;99.90
7216;DHT22;3649;48.798;9.798;2023-02-10T02:07:34;1.90;99.90
7216;DHT22;3649;48.798;9.798;2023-02-10T02:10:05;2.00;99.90
7216;DHT22;3649;48.798;9.798;2023-02-10T02:12:46;1.90;99.90
7216;DHT22;3649;48.798;9.798;2023-02-10T02:15:27;1.90;99.90
7216;DHT22;3649;48.798;9.798;2023-02-10T02:19:06;2.00;99.90
7216;DHT22;3649;48.798;9.798;2023-02-10T02:23:55;2.00;99.90
7216;DHT22;3649;48.798;9.798;2023-02-10T02:27:04;2.00;99.90
7216;DHT22;3649;48.798;9.798;2023-02-10T02:32:37;2.00;99.90
7216;DHT22;3649;48.798;9.798;2023-02-10T02:35:18;1.90;99.90
7216;DHT22;3649;48.798;9.798;2023-02-10T02:37:46;1.80;99.90
7216;DHT22;3649;48.798;9.798;2023-02-10T02:40:15;1.80;99.90
7216;DHT22;3649;48.798;9.798;2023-02-10T02:42:42;1.80;99.90
7216;DHT22;3649;48.798;9.798;2023-02-10T02:48:28;1.80;99.90
7216;DHT22;3649;48.798;9.798;2023-02-10T02:54:00;1.90;99.90
7216;DHT22;3649;48.798;9.798;2023-02-10T03:01:39;1.90;99.90
7216;DHT22;3649;48.798;9.798;2023-02-10T03:04:12;1.90;99.90
7216;DHT22;3649;48.798;9.798;2023-02-10T03:06:40;2.00;99.90
7216;DHT22;3649;48.798;9.798;2023-02-10T03:09:07;2.00;99.90
7216;DHT22;3649;48.798;9.798;2023-02-10T03:11:34;1.90;99.90
7216;DHT22;3649;48.798;9.798;2023-02-10T03:14:01;1.70;99.90
7216;DHT22;3649;48.798;9.798;2023-02-10T03:16:28;1.60;99.90
7216;DHT22;3649;48.798;9.798;2023-02-10T03:18:55;1.60;99.90
7216;DHT22;3649;48.798;9.798;2023-02-10T03:21:22;1.60;99.90
7216;DHT22;3649;48.798;9.798;2023-02-10T03:23:48;1.50;99.90
7216;DHT22;3649;48.798;9.798;2023-02-10T03:26:15;1.50;99.90
7216;DHT22;3649;48.798;9.798;2023-02-10T03:28:42;1.40;99.90
7216;DHT22;3649;48.798;9.798;2023-02-10T03:31:09;1.40;99.90
7216;DHT22;3649;48.798;9.798;2023-02-10T03:33:36;1.40;99.90
7216;DHT22;3649;48.798;9.798;2023-02-10T03:36:03;1.40;99.90
7216;DHT22;3649;48.798;9.798;2023-02-10T03:38:30;1.40;99.90
7216;DHT22;3649;48.798;9.798;2023-02-10T03:40:57;1.40;99.90
7216;DHT22;3649;48.798;9.798;2023-02-10T03:43:24;1.40;99.90
7216;DHT22;3649;48.798;9.798;2023-02-10T03:45:50;1.30;99.90
7216;DHT22;3649;48.798;9.798;2023-02-10T03:48:17;1.30;99.90
7216;DHT22;3649;48.798;9.798;2023-02-10T03:50:45;1.20;99.90
7216;DHT22;3649;48.798;9.798;2023-02-10T03:53:11;1.20;99.90
7216;DHT22;3649;48.798;9.798;2023-02-10T03:55:38;1.40;99.90
7216;DHT22;3649;48.798;9.798;2023-02-10T03:58:05;1.30;99.90
7216;DHT22;3649;48.798;9.798;2023-02-10T04:00:32;1.30;99.90
7216;DHT22;3649;48.798;9.798;2023-02-10T04:02:59;1.20;99.90
7216;DHT22;3649;48.798;9.798;2023-02-10T04:05:26;1.20;99.90
7216;DHT22;3649;48.798;9.798;2023-02-10T04:07:52;1.30;99.90
7216;DHT22;3649;48.798;9.798;2023-02-10T04:10:19;1.30;99.90
7216;DHT22;3649;48.798;9.798;2023-02-10T04:12:48;1.20;99.90
7216;DHT22;3649;48.798;9.798;2023-02-10T04:15:15;1.30;99.90
7216;DHT22;3649;48.798;9.798;2023-02-10T04:17:42;1.20;99.90
7216;DHT22;3649;48.798;9.798;2023-02-10T04:20:09;1.20;99.90
7216;DHT22;3649;48.798;9.798;2023-02-10T04:22:36;1.30;99.90
7216;DHT22;3649;48.798;9.798;2023-02-10T04:25:02;1.30;99.90
7216;DHT22;3649;48.798;9.798;2023-02-10T04:27:29;1.10;99.90
7216;DHT22;3649;48.798;9.798;2023-02-10T04:29:56;1.00;99.90
7216;DHT22;3649;48.798;9.798;2023-02-10T04:32:23;1.00;99.90
7216;DHT22;3649;48.798;9.798;2023-02-10T04:34:50;1.00;99.90
7216;DHT22;3649;48.798;9.798;2023-02-10T04:37:17;1.00;99.90
7216;DHT22;3649;48.798;9.798;2023-02-10T04:39:44;1.10;99.90
7216;DHT22;3649;48.798;9.798;2023-02-10T04:42:11;1.20;99.90
7216;DHT22;3649;48.798;9.798;2023-02-10T04:44:38;1.20;99.90
7216;DHT22;3649;48.798;9.798;2023-02-10T04:47:05;0.00;99.60
7216;DHT22;3649;48.798;9.798;2023-02-10T04:49:31;3.00;99.90
7216;DHT22;3649;48.798;9.798;2023-02-10T04:51:58;1.20;99.90
7216;DHT22;3649;48.798;9.798;2023-02-10T04:54:25;1.30;99.90
7216;DHT22;3649;48.798;9.798;2023-02-10T04:56:52;1.30;99.80
7216;DHT22;3649;48.798;9.798;2023-02-10T04:59:19;1.30;99.70
7216;DHT22;3649;48.798;9.798;2023-02-10T05:01:46;1.20;99.60
7216;DHT22;3649;48.798;9.798;2023-02-10T05:04:13;1.20;99.60
7216;DHT22;3649;48.798;9.798;2023-02-10T05:06:39;1.20;99.60
7216;DHT22;3649;48.798;9.798;2023-02-10T05:09:06;1.10;99.70
7216;DHT22;3649;48.798;9.798;2023-02-10T05:11:33;1.00;99.80
7216;DHT22;3649;48.798;9.798;2023-02-10T05:14:00;1.00;99.90
7216;DHT22;3649;48.798;9.798;2023-02-10T05:16:27;0.90;99.90
7216;DHT22;3649;48.798;9.798;2023-02-10T05:18:54;0.90;99.90
7216;DHT22;3649;48.798;9.798;2023-02-10T05:21:20;1.00;99.90
7216;DHT22;3649;48.798;9.798;2023-02-10T05:23:47;1.00;99.90
7216;DHT22;3649;48.798;9.798;2023-02-10T05:26:14;0.90;99.90
7216;DHT22;3649;48.798;9.798;2023-02-10T05:28:47;1.00;99.90
7216;DHT22;3649;48.798;9.798;2023-02-10T05:31:14;1.00;99.90
7216;DHT22;3649;48.798;9.798;2023-02-10T05:33:41;1.00;99.90
7216;DHT22;3649;48.798;9.798;2023-02-10T05:36:08;1.00;99.90
7216;DHT22;3649;48.798;9.798;2023-02-10T05:38:35;1.00;99.90
7216;DHT22;3649;48.798;9.798;2023-02-10T05:41:02;1.00;99.90
7216;DHT22;3649;48.798;9.798;2023-02-10T05:43:29;1.10;99.90
7216;DHT22;3649;48.798;9.798;2023-02-10T05:45:56;1.20;99.90
7216;DHT22;3649;48.798;9.798;2023-02-10T05:48:23;1.10;99.70
7216;DHT22;3649;48.798;9.798;2023-02-10T05:50:51;1.10;99.70
7216;DHT22;3649;48.798;9.798;2023-02-10T05:53:18;1.00;99.60
7216;DHT22;3649;48.798;9.798;2023-02-10T05:55:45;0.90;99.50
7216;DHT22;3649;48.798;9.798;2023-02-10T05:58:13;0.90;99.50
7216;DHT22;3649;48.798;9.798;2023-02-10T06:00:39;0.90;99.40
7216;DHT22;3649;48.798;9.798;2023-02-10T06:03:06;0.80;99.40
7216;DHT22;3649;48.798;9.798;2023-02-10T06:05:35;0.80;99.40
7216;DHT22;3649;48.798;9.798;2023-02-10T06:08:02;0.90;99.30
7216;DHT22;3649;48.798;9.798;2023-02-10T06:10:28;0.90;99.30
7216;DHT22;3649;48.798;9.798;2023-02-10T06:12:55;0.80;99.40
7216;DHT22;3649;48.798;9.798;2023-02-10T06:15:22;0.70;99.30
7216;DHT22;3649;48.798;9.798;2023-02-10T06:17:49;0.80;99.50
7216;DHT22;3649;48.798;9.798;2023-02-10T06:20:15;0.70;99.60
7216;DHT22;3649;48.798;9.798;2023-02-10T06:22:42;0.70;99.60
7216;DHT22;3649;48.798;9.798;2023-02-10T06:25:09;0.80;99.60
7216;DHT22;3649;48.798;9.798;2023-02-10T06:27:36;0.70;99.50
7216;DHT22;3649;48.798;9.798;2023-02-10T06:30:03;0.70;99.60
7216;DHT22;3649;48.798;9.798;2023-02-10T06:32:30;0.70;99.60
7216;DHT22;3649;48.798;9.798;2023-02-10T06:34:56;0.70;99.60
7216;DHT22;3649;48.798;9.798;2023-02-10T06:37:23;1.90;99.90
7216;DHT22;3649;48.798;9.798;2023-02-10T06:39:50;0.70;99.60
7216;DHT22;3649;48.798;9.798;2023-02-10T06:42:17;0.70;99.50
7216;DHT22;3649;48.798;9.798;2023-02-10T06:44:44;1.00;99.60
7216;DHT22;3649;48.798;9.798;2023-02-10T06:47:11;0.80;99.60
7216;DHT22;3649;48.798;9.798;2023-02-10T06:49:38;0.80;99.60
7216;DHT22;3649;48.798;9.798;2023-02-10T06:52:05;0.70;99.60
7216;DHT22;3649;48.798;9.798;2023-02-10T06:54:42;0.70;99.70
7216;DHT22;3649;48.798;9.798;2023-02-10T06:57:09;0.80;99.70
7216;DHT22;3649;48.798;9.798;2023-02-10T06:59:36;0.90;99.60
7216;DHT22;3649;48.798;9.798;2023-02-10T07:02:03;0.90;99.50
7216;DHT22;3649;48.798;9.798;2023-02-10T07:04:31;1.00;99.70
7216;DHT22;3649;48.798;9.798;2023-02-10T07:06:58;0.90;99.50
7216;DHT22;3649;48.798;9.798;2023-02-10T07:09:25;0.90;99.60
7216;DHT22;3649;48.798;9.798;2023-02-10T07:11:51;1.00;99.60
7216;DHT22;3649;48.798;9.798;2023-02-10T07:14:18;1.00;99.50
7216;DHT22;3649;48.798;9.798;2023-02-10T07:16:45;1.00;99.50
7216;DHT22;3649;48.798;9.798;2023-02-10T07:19:14;2.90;99.90
7216;DHT22;3649;48.798;9.798;2023-02-10T07:21:41;0.90;99.40
7216;DHT22;3649;48.798;9.798;2023-02-10T07:24:08;0.90;99.50
7216;DHT22;3649;48.798;9.798;2023-02-10T07:26:34;0.80;99.40
7216;DHT22;3649;48.798;9.798;2023-02-10T07:29:02;0.80;99.40
7216;DHT22;3649;48.798;9.798;2023-02-10T07:31:28;1.60;99.80
7216;DHT22;3649;48.798;9.798;2023-02-10T07:33:55;0.90;99.60
7216;DHT22;3649;48.798;9.798;2023-02-10T07:36:22;0.90;99.60
7216;DHT22;3649;48.798;9.798;2023-02-10T07:38:49;0.90;99.60
7216;DHT22;3649;48.798;9.798;2023-02-10T07:41:16;0.90;99.90
7216;DHT22;3649;48.798;9.798;2023-02-10T07:43:43;1.00;99.70
7216;DHT22;3649;48.798;9.798;2023-02-10T07:46:10;1.00;99.70
7216;DHT22;3649;48.798;9.798;2023-02-10T07:48:37;1.00;99.80
7216;DHT22;3649;48.798;9.798;2023-02-10T07:51:05;1.10;99.90
7216;DHT22;3649;48.798;9.798;2023-02-10T07:53:32;1.20;99.90
7216;DHT22;3649;48.798;9.798;2023-02-10T07:55:59;1.20;99.90
7216;DHT22;3649;48.798;9.798;2023-02-10T07:58:26;2.00;99.90
7216;DHT22;3649;48.798;9.798;2023-02-10T08:00:53;1.90;99.90
7216;DHT22;3649;48.798;9.798;2023-02-10T08:03:20;1.30;99.80
7216;DHT22;3649;48.798;9.798;2023-02-10T08:05:47;1.30;99.90
7216;DHT22;3649;48.798;9.798;2023-02-10T08:08:15;1.40;99.90
7216;DHT22;3649;48.798;9.798;2023-02-10T08:10:42;2.00;99.90
7216;DHT22;3649;48.798;9.798;2023-02-10T08:13:09;1.60;99.90
7216;DHT22;3649;48.798;9.798;2023-02-10T08:15:36;1.70;99.90
7216;DHT22;3649;48.798;9.798;2023-02-10T08:18:03;1.70;99.90
7216;DHT22;3649;48.798;9.798;2023-02-10T08:20:30;1.80;99.90
7216;DHT22;3649;48.798;9.798;2023-02-10T08:22:57;1.90;99.90
7216;DHT22;3649;48.798;9.798;2023-02-10T08:25:26;2.10;99.90
7216;DHT22;3649;48.798;9.798;2023-02-10T08:27:54;2.20;99.90
7216;DHT22;3649;48.798;9.798;2023-02-10T08:30:21;2.20;99.90
7216;DHT22;3649;48.798;9.798;2023-02-10T08:32:48;2.40;99.90
7216;DHT22;3649;48.798;9.798;2023-02-10T08:35:15;2.60;99.90
7216;DHT22;3649;48.798;9.798;2023-02-10T08:37:42;2.60;99.80
7216;DHT22;3649;48.798;9.798;2023-02-10T08:40:10;2.60;99.70
7216;DHT22;3649;48.798;9.798;2023-02-10T08:42:37;2.60;99.90
7216;DHT22;3649;48.798;9.798;2023-02-10T08:45:04;2.60;99.90
7216;DHT22;3649;48.798;9.798;2023-02-10T08:47:32;2.60;99.90
7216;DHT22;3649;48.798;9.798;2023-02-10T08:49:59;2.50;99.90
7216;DHT22;3649;48.798;9.798;2023-02-10T08:52:26;2.60;99.90
7216;DHT22;3649;48.798;9.798;2023-02-10T08:54:53;2.60;99.90
7216;DHT22;3649;48.798;9.798;2023-02-10T08:57:20;2.60;99.90
7216;DHT22;3649;48.798;9.798;2023-02-10T08:59:47;2.60;99.90
7216;DHT22;3649;48.798;9.798;2023-02-10T09:02:13;2.70;99.90
7216;DHT22;3649;48.798;9.798;2023-02-10T09:04:41;2.70;99.90
7216;DHT22;3649;48.798;9.798;2023-02-10T09:07:08;2.70;99.90
7216;DHT22;3649;48.798;9.798;2023-02-10T09:09:38;2.90;99.90
7216;DHT22;3649;48.798;9.798;2023-02-10T09:12:07;2.90;99.90
7216;DHT22;3649;48.798;9.798;2023-02-10T09:14:36;3.00;99.90
7216;DHT22;3649;48.798;9.798;2023-02-10T09:17:03;3.10;99.90
7216;DHT22;3649;48.798;9.798;2023-02-10T09:19:30;3.20;99.90
7216;DHT22;3649;48.798;9.798;2023-02-10T09:21:57;3.30;99.90
7216;DHT22;3649;48.798;9.798;2023-02-10T09:24:26;3.50;99.90
7216;DHT22;3649;48.798;9.798;2023-02-10T09:26:53;3.60;99.90
7216;DHT22;3649;48.798;9.798;2023-02-10T09:29:20;3.70;99.90
7216;DHT22;3649;48.798;9.798;2023-02-10T09:31:47;3.80;99.90
7216;DHT22;3649;48.798;9.798;2023-02-10T09:34:14;3.80;99.90
7216;DHT22;3649;48.798;9.798;2023-02-10T09:36:41;3.90;99.90
7216;DHT22;3649;48.798;9.798;2023-02-10T09:39:08;3.90;99.90
7216;DHT22;3649;48.798;9.798;2023-02-10T09:47:13;4.10;99.90
7216;DHT22;3649;48.798;9.798;2023-02-10T09:58:00;4.50;99.90
7216;DHT22;3649;48.798;9.798;2023-02-10T10:00:35;4.50;99.90
7216;DHT22;3649;48.798;9.798;2023-02-10T10:03:06;4.60;99.90
7216;DHT22;3649;48.798;9.798;2023-02-10T10:05:41;4.60;99.90
7216;DHT22;3649;48.798;9.798;2023-02-10T10:11:09;4.70;99.90
7216;DHT22;3649;48.798;9.798;2023-02-10T10:13:43;4.60;99.90
7216;DHT22;3649;48.798;9.798;2023-02-10T10:21:26;4.90;99.90
7216;DHT22;3649;48.798;9.798;2023-02-10T10:26:42;6.10;99.90
7216;DHT22;3649;48.798;9.798;2023-02-10T10:32:15;5.00;99.90
7216;DHT22;3649;48.798;9.798;2023-02-10T10:34:50;5.10;99.90
7216;DHT22;3649;48.798;9.798;2023-02-10T10:37:20;5.20;99.90
7216;DHT22;3649;48.798;9.798;2023-02-10T10:39:57;5.20;99.90
7216;DHT22;3649;48.798;9.798;2023-02-10T10:42:28;5.30;99.90
7216;DHT22;3649;48.798;9.798;2023-02-10T10:45:14;5.30;99.90
7216;DHT22;3649;48.798;9.798;2023-02-10T10:47:54;5.40;99.90
7216;DHT22;3649;48.798;9.798;2023-02-10T10:50:23;5.40;99.90
7216;DHT22;3649;48.798;9.798;2023-02-10T10:52:52;5.50;99.90
7216;DHT22;3649;48.798;9.798;2023-02-10T10:55:51;5.60;99.90
7216;DHT22;3649;48.798;9.798;2023-02-10T10:58:49;5.70;99.90
7216;DHT22;3649;48.798;9.798;2023-02-10T11:01:17;5.70;99.90
7216;DHT22;3649;48.798;9.798;2023-02-10T11:03:44;5.70;99.90
7216;DHT22;3649;48.798;9.798;2023-02-10T11:06:15;5.80;99.90
7216;DHT22;3649;48.798;9.798;2023-02-10T11:08:54;5.80;99.90
7216;DHT22;3649;48.798;9.798;2023-02-10T11:11:41;5.90;99.40
7216;DHT22;3649;48.798;9.798;2023-02-10T11:14:21;5.90;98.80
7216;DHT22;3649;48.798;9.798;2023-02-10T11:16:58;6.00;98.70
7216;DHT22;3649;48.798;9.798;2023-02-10T11:19:31;6.00;98.90
7216;DHT22;3649;48.798;9.798;2023-02-10T11:22:16;6.00;99.20
7216;DHT22;3649;48.798;9.798;2023-02-10T11:24:50;6.00;99.10
7216;DHT22;3649;48.798;9.798;2023-02-10T11:27:17;6.10;99.10
7216;DHT22;3649;48.798;9.798;2023-02-10T11:29:50;6.20;99.20
7216;DHT22;3649;48.798;9.798;2023-02-10T11:32:26;6.20;99.00
7216;DHT22;3649;48.798;9.798;2023-02-10T11:34:57;6.20;99.10
7216;DHT22;3649;48.798;9.798;2023-02-10T11:37:38;6.30;99.30
7216;DHT22;3649;48.798;9.798;2023-02-10T11:40:21;6.30;99.40
7216;DHT22;3649;48.798;9.798;2023-02-10T11:42:51;6.40;99.40
7216;DHT22;3649;48.798;9.798;2023-02-10T11:45:21;6.50;99.40
7216;DHT22;3649;48.798;9.798;2023-02-10T11:48:03;6.50;99.20
7216;DHT22;3649;48.798;9.798;2023-02-10T11:50:33;6.60;99.00
7216;DHT22;3649;48.798;9.798;2023-02-10T11:53:01;6.60;99.00
7216;DHT22;3649;48.798;9.798;2023-02-10T11:55:37;6.60;99.10
7216;DHT22;3649;48.798;9.798;2023-02-10T12:06:54;6.70;99.00
7216;DHT22;3649;48.798;9.798;2023-02-10T12:12:37;6.80;99.00
7216;DHT22;3649;48.798;9.798;2023-02-10T12:26:50;7.00;98.50
7216;DHT22;3649;48.798;9.798;2023-02-10T12:44:28;7.00;98.40
7216;DHT22;3649;48.798;9.798;2023-02-10T12:49:43;7.10;98.10
7216;DHT22;3649;48.798;9.798;2023-02-10T12:52:27;7.10;97.40
7216;DHT22;3649;48.798;9.798;2023-02-10T12:57:41;7.20;97.20
7216;DHT22;3649;48.798;9.798;2023-02-10T13:00:36;7.20;97.20
7216;DHT22;3649;48.798;9.798;2023-02-10T13:03:18;7.20;97.00
7216;DHT22;3649;48.798;9.798;2023-02-10T13:05:49;7.30;97.00
7216;DHT22;3649;48.798;9.798;2023-02-10T13:08:32;7.30;97.00
7216;DHT22;3649;48.798;9.798;2023-02-10T13:14:08;7.40;96.80
7216;DHT22;3649;48.798;9.798;2023-02-10T13:16:38;7.40;97.00
7216;DHT22;3649;48.798;9.798;2023-02-10T13:19:38;7.40;96.50
7216;DHT22;3649;48.798;9.798;2023-02-10T13:28:24;7.50;96.50
7216;DHT22;3649;48.798;9.798;2023-02-10T13:34:02;7.50;96.30
7216;DHT22;3649;48.798;9.798;2023-02-10T13:36:33;7.60;96.40
7216;DHT22;3649;48.798;9.798;2023-02-10T13:39:12;7.60;96.50
7216;DHT22;3649;48.798;9.798;2023-02-10T13:41:42;7.60;96.50
7216;DHT22;3649;48.798;9.798;2023-02-10T13:50:00;7.80;96.20
7216;DHT22;3649;48.798;9.798;2023-02-10T13:52:31;7.80;96.10
7216;DHT22;3649;48.798;9.798;2023-02-10T14:00:48;7.70;96.70
7216;DHT22;3649;48.798;9.798;2023-02-10T14:05:59;7.70;97.10
7216;DHT22;3649;48.798;9.798;2023-02-10T14:13:38;7.70;96.40
7216;DHT22;3649;48.798;9.798;2023-02-10T14:18:43;7.60;96.60
7216;DHT22;3649;48.798;9.798;2023-02-10T14:21:15;7.70;96.40
7216;DHT22;3649;48.798;9.798;2023-02-10T14:23:50;7.80;96.60
7216;DHT22;3649;48.798;9.798;2023-02-10T14:26:28;7.70;96.70
7216;DHT22;3649;48.798;9.798;2023-02-10T14:28:57;7.70;96.50
7216;DHT22;3649;48.798;9.798;2023-02-10T14:31:35;8.80;96.80
7216;DHT22;3649;48.798;9.798;2023-02-10T14:34:15;7.90;96.60
7216;DHT22;3649;48.798;9.798;2023-02-10T14:36:56;7.80;96.70
7216;DHT22;3649;48.798;9.798;2023-02-10T14:39:25;7.80;96.80
7216;DHT22;3649;48.798;9.798;2023-02-10T14:41:52;7.90;96.70
7216;DHT22;3649;48.798;9.798;2023-02-10T14:46:55;7.90;96.80
7216;DHT22;3649;48.798;9.798;2023-02-10T14:49:22;8.80;97.10
7216;DHT22;3649;48.798;9.798;2023-02-10T14:51:50;7.80;96.90
7216;DHT22;3649;48.798;9.798;2023-02-10T14:54:22;7.80;96.70
7216;DHT22;3649;48.798;9.798;2023-02-10T14:57:00;7.80;96.90
7216;DHT22;3649;48.798;9.798;2023-02-10T14:59:30;7.80;96.80
7216;DHT22;3649;48.798;9.798;2023-02-10T15:02:07;8.30;97.20
7216;DHT22;3649;48.798;9.798;2023-02-10T15:04:48;7.80;96.60
7216;DHT22;3649;48.798;9.798;2023-02-10T15:07:28;7.90;96.50
7216;DHT22;3649;48.798;9.798;2023-02-10T15:09:59;7.90;96.30
7216;DHT22;3649;48.798;9.798;2023-02-10T15:12:27;7.90;96.10
7216;DHT22;3649;48.798;9.798;2023-02-10T15:15:27;7.90;96.10
7216;DHT22;3649;48.798;9.798;2023-02-10T15:18:05;7.90;96.40
7216;DHT22;3649;48.798;9.798;2023-02-10T15:20:34;8.00;95.90
7216;DHT22;3649;48.798;9.798;2023-02-10T15:36:32;8.30;96.10
7216;DHT22;3649;48.798;9.798;2023-02-10T15:39:24;7.80;96.10
7216;DHT22;3649;48.798;9.798;2023-02-10T15:44:28;7.80;96.00
7216;DHT22;3649;48.798;9.798;2023-02-10T15:49:46;7.80;96.10
7216;DHT22;3649;48.798;9.798;2023-02-10T15:52:19;7.70;96.20
7216;DHT22;3649;48.798;9.798;2023-02-10T15:54:47;7.70;96.30
7216;DHT22;3649;48.798;9.798;2023-02-10T15:57:17;7.80;96.40
7216;DHT22;3649;48.798;9.798;2023-02-10T15:59:44;7.60;96.40
7216;DHT22;3649;48.798;9.798;2023-02-10T16:02:13;7.60;96.30
7216;DHT22;3649;48.798;9.798;2023-02-10T16:04:41;7.60;96.40
7216;DHT22;3649;48.798;9.798;2023-02-10T16:07:14;7.50;96.40
7216;DHT22;3649;48.798;9.798;2023-02-10T16:09:43;7.50;96.60
7216;DHT22;3649;48.798;9.798;2023-02-10T16:12:10;7.50;96.70
7216;DHT22;3649;48.798;9.798;2023-02-10T16:14:37;7.40;96.60
7216;DHT22;3649;48.798;9.798;2023-02-10T16:17:05;7.40;96.80
7216;DHT22;3649;48.798;9.798;2023-02-10T16:19:32;7.30;97.00
7216;DHT22;3649;48.798;9.798;2023-02-10T16:21:59;7.20;97.30
7216;DHT22;3649;48.798;9.798;2023-02-10T16:24:28;7.20;97.30
7216;DHT22;3649;48.798;9.798;2023-02-10T16:26:56;7.20;97.30
7216;DHT22;3649;48.798;9.798;2023-02-10T16:29:25;7.20;97.20
7216;DHT22;3649;48.798;9.798;2023-02-10T16:31:52;7.20;97.40
7216;DHT22;3649;48.798;9.798;2023-02-10T16:34:20;7.10;97.40
7216;DHT22;3649;48.798;9.798;2023-02-10T16:36:51;7.00;97.50
7216;DHT22;3649;48.798;9.798;2023-02-10T16:39:20;6.90;97.70
7216;DHT22;3649;48.798;9.798;2023-02-10T16:41:48;6.40;97.60
7216;DHT22;3649;48.798;9.798;2023-02-10T16:44:16;6.80;97.90
7216;DHT22;3649;48.798;9.798;2023-02-10T16:46:44;6.70;98.00
7216;DHT22;3649;48.798;9.798;2023-02-10T16:49:12;6.70;98.20
7216;DHT22;3649;48.798;9.798;2023-02-10T16:51:39;6.60;98.50
7216;DHT22;3649;48.798;9.798;2023-02-10T16:54:07;6.60;98.70
7216;DHT22;3649;48.798;9.798;2023-02-10T16:56:37;6.60;99.00
7216;DHT22;3649;48.798;9.798;2023-02-10T16:59:09;6.60;98.90
7216;DHT22;3649;48.798;9.798;2023-02-10T17:01:37;6.60;99.00
7216;DHT22;3649;48.798;9.798;2023-02-10T17:04:04;6.50;99.10
7216;DHT22;3649;48.798;9.798;2023-02-10T17:06:32;6.40;99.20
7216;DHT22;3649;48.798;9.798;2023-02-10T17:08:59;6.30;99.40
7216;DHT22;3649;48.798;9.798;2023-02-10T17:11:26;6.20;99.50
7216;DHT22;3649;48.798;9.798;2023-02-10T17:13:53;6.20;99.50
7216;DHT22;3649;48.798;9.798;2023-02-10T17:16:34;6.20;99.60
7216;DHT22;3649;48.798;9.798;2023-02-10T17:19:05;6.20;99.70
7216;DHT22;3649;48.798;9.798;2023-02-10T17:21:32;6.10;99.70
7216;DHT22;3649;48.798;9.798;2023-02-10T17:24:00;6.10;99.90
7216;DHT22;3649;48.798;9.798;2023-02-10T17:26:27;6.00;99.90
7216;DHT22;3649;48.798;9.798;2023-02-10T17:28:54;5.90;99.90
7216;DHT22;3649;48.798;9.798;2023-02-10T17:31:22;5.90;99.90
7216;DHT22;3649;48.798;9.798;2023-02-10T17:33:49;5.90;99.90
7216;DHT22;3649;48.798;9.798;2023-02-10T17:36:22;5.90;99.90
7216;DHT22;3649;48.798;9.798;2023-02-10T17:38:50;6.40;99.90
7216;DHT22;3649;48.798;9.798;2023-02-10T17:41:21;5.90;99.90
7216;DHT22;3649;48.798;9.798;2023-02-10T17:43:49;5.90;99.90
7216;DHT22;3649;48.798;9.798;2023-02-10T17:46:17;5.90;99.90
7216;DHT22;3649;48.798;9.798;2023-02-10T17:48:45;6.30;99.90
7216;DHT22;3649;48.798;9.798;2023-02-10T17:51:18;5.80;99.90
7216;DHT22;3649;48.798;9.798;2023-02-10T17:53:46;5.80;99.90
7216;DHT22;3649;48.798;9.798;2023-02-10T17:56:15;5.80;99.90
7216;DHT22;3649;48.798;9.798;2023-02-10T17:58:43;5.60;99.90
7216;DHT22;3649;48.798;9.798;2023-02-10T18:01:20;5.60;99.90
7216;DHT22;3649;48.798;9.798;2023-02-10T18:03:48;5.60;99.90
7216;DHT22;3649;48.798;9.798;2023-02-10T18:06:15;5.60;99.90
7216;DHT22;3649;48.798;9.798;2023-02-10T18:08:44;5.60;99.90
7216;DHT22;3649;48.798;9.798;2023-02-10T18:11:12;6.70;99.90
7216;DHT22;3649;48.798;9.798;2023-02-10T18:13:39;5.60;99.90
7216;DHT22;3649;48.798;9.798;2023-02-10T18:16:07;5.50;99.90
7216;DHT22;3649;48.798;9.798;2023-02-10T18:18:34;5.50;99.90
7216;DHT22;3649;48.798;9.798;2023-02-10T18:21:01;5.50;99.90
7216;DHT22;3649;48.798;9.798;2023-02-10T18:23:28;5.50;99.90
7216;DHT22;3649;48.798;9.798;2023-02-10T18:25:55;5.50;99.90
7216;DHT22;3649;48.798;9.798;2023-02-10T18:28:22;5.60;99.90
7216;DHT22;3649;48.798;9.798;2023-02-10T18:30:49;5.50;99.90
7216;DHT22;3649;48.798;9.798;2023-02-10T18:33:16;5.50;99.90
7216;DHT22;3649;48.798;9.798;2023-02-10T18:35:43;5.50;99.90
7216;DHT22;3649;48.798;9.798;2023-02-10T18:38:10;5.70;99.90
7216;DHT22;3649;48.798;9.798;2023-02-10T18:40:41;5.40;99.90
7216;DHT22;3649;48.798;9.798;2023-02-10T18:43:09;5.40;99.90
7216;DHT22;3649;48.798;9.798;2023-02-10T18:45:38;5.30;99.90
7216;DHT22;3649;48.798;9.798;2023-02-10T18:48:11;5.30;99.90
7216;DHT22;3649;48.798;9.798;2023-02-10T18:50:38;5.30;99.90
7216;DHT22;3649;48.798;9.798;2023-02-10T18:53:06;5.30;99.90
7216;DHT22;3649;48.798;9.798;2023-02-10T18:55:33;5.20;99.90
7216;DHT22;3649;48.798;9.798;2023-02-10T18:58:00;5.30;99.90
7216;DHT22;3649;48.798;9.798;2023-02-10T19:00:32;5.30;99.90
7216;DHT22;3649;48.798;9.798;2023-02-10T19:02:58;5.30;99.90